Terminal Aerodrome Forecast
Issued by NWS

Home | Current Version | Previous Version | Text Only | Print | Product List | Glossary On
Versions: 1 2 3 4 5 6 7 8 9 10 11 12 13 14 15 16 17 18 19 20 21 22 23 24 25 26 27 28 29 30 31 32
000
FTUS43 KEAX 212300
TAFSTJ
TAF
KSTJ 212333Z 2200/2224 11005KT P6SM VCSH OVC018
     FM220500 14004KT 4SM -DZ BR OVC007
     FM220800 16005KT 1/2SM -DZ FG OVC003
     FM221500 18008KT 4SM BR OVC006
     FM221800 19011KT P6SM VCSH OVC017=

USA.gov is the U.S. government's official web portal to all federal, state and local government web resources and services.